Time,TemperatureF,DewpointF,PressureIn,WindDirection,WindDirectionDegrees,WindSpeedMPH,WindSpeedGustMPH,Humidity,HourlyPrecipIn,Conditions,Clouds,dailyrainin,SoftwareType,DateUTC
2013-07-27 00:02:00,67.0,30.0,-100.00,NE,38,2.0,5.0,25,-99.99,,,-99.99,,2013-07-27 06:02:00,
2013-07-27 00:12:00,64.0,30.0,-100.00,ENE,57,3.0,4.0,28,-99.99,,,-99.99,,2013-07-27 06:12:00,
2013-07-27 00:22:00,64.0,30.0,-100.00,ENE,57,3.0,4.0,28,-99.99,,,-99.99,,2013-07-27 06:22:00,
2013-07-27 00:43:00,65.0,31.0,-100.00,ENE,68,12.0,13.0,27,-99.99,,,-99.99,,2013-07-27 06:43:00,
2013-07-27 00:52:00,66.0,30.0,-100.00,ENE,72,12.0,13.0,26,-99.99,,,-99.99,,2013-07-27 06:52:00,
2013-07-27 01:33:00,63.0,30.0,-100.00,ENE,77,7.0,8.0,28,-99.99,,,-99.99,,2013-07-27 07:33:00,
2013-07-27 01:43:00,63.0,31.0,-100.00,ENE,77,12.0,12.0,29,-99.99,,,-99.99,,2013-07-27 07:43:00,
2013-07-27 01:52:00,63.0,31.0,-100.00,ENE,73,10.0,12.0,29,-99.99,,,-99.99,,2013-07-27 07:52:00,
2013-07-27 02:02:00,61.0,31.0,-100.00,NNE,31,4.0,9.0,31,-99.99,,,-99.99,,2013-07-27 08:02:00,
2013-07-27 02:22:00,60.0,30.0,-100.00,ENE,76,4.0,6.0,31,-99.99,,,-99.99,,2013-07-27 08:22:00,
2013-07-27 02:32:00,64.0,30.0,-100.00,East,85,5.0,9.0,28,-99.99,,,-99.99,,2013-07-27 08:32:00,
2013-07-27 02:43:00,65.0,30.0,-100.00,SE,125,3.0,8.0,26,-99.99,,,-99.99,,2013-07-27 08:43:00,
2013-07-27 02:53:00,65.0,30.0,-100.00,SE,125,3.0,8.0,26,-99.99,,,-99.99,,2013-07-27 08:53:00,
2013-07-27 03:02:00,65.0,31.0,-100.00,South,180,6.0,7.0,28,-99.99,,,-99.99,,2013-07-27 09:02:00,
2013-07-27 03:11:00,62.0,32.0,-100.00,NNE,28,2.0,5.0,32,-99.99,,,-99.99,,2013-07-27 09:11:00,
2013-07-27 03:22:00,66.0,36.0,-100.00,South,178,5.0,8.0,32,-99.99,,,-99.99,,2013-07-27 09:22:00,
2013-07-27 03:33:00,66.0,36.0,-100.00,South,178,5.0,8.0,32,-99.99,,,-99.99,,2013-07-27 09:33:00,
2013-07-27 03:44:00,66.0,37.0,-100.00,SE,141,1.0,8.0,34,-99.99,,,-99.99,,2013-07-27 09:44:00,
2013-07-27 03:52:00,65.0,38.0,-100.00,ENE,62,1.0,8.0,37,-99.99,,,-99.99,,2013-07-27 09:52:00,
2013-07-27 04:12:00,67.0,38.0,-100.00,SE,140,10.0,14.0,33,-99.99,,,-99.99,,2013-07-27 10:12:00,
2013-07-27 04:22:00,66.0,38.0,-100.00,East,88,5.0,11.0,36,-99.99,,,-99.99,,2013-07-27 10:22:00,
2013-07-27 04:32:00,67.0,36.0,-100.00,ESE,102,6.0,7.0,32,-99.99,,,-99.99,,2013-07-27 10:32:00,
2013-07-27 04:43:00,66.0,37.0,-100.00,ESE,102,7.0,10.0,33,-99.99,,,-99.99,,2013-07-27 10:43:00,
2013-07-27 04:52:00,66.0,37.0,-100.00,ESE,102,7.0,10.0,33,-99.99,,,-99.99,,2013-07-27 10:52:00,
2013-07-27 05:02:00,66.0,39.0,-100.00,East,85,6.0,7.0,36,-99.99,,,-99.99,,2013-07-27 11:02:00,
2013-07-27 05:22:00,65.0,38.0,-100.00,ENE,62,8.0,8.0,37,-99.99,,,-99.99,,2013-07-27 11:22:00,
2013-07-27 05:32:00,64.0,37.0,-100.00,ENE,66,8.0,8.0,36,-99.99,,,-99.99,,2013-07-27 11:32:00,
2013-07-27 05:43:00,63.0,36.0,-100.00,East,84,8.0,8.0,36,-99.99,,,-99.99,,2013-07-27 11:43:00,
2013-07-27 05:52:00,64.0,37.0,-100.00,ENE,70,8.0,8.0,36,-99.99,,,-99.99,,2013-07-27 11:52:00,
2013-07-27 06:02:00,63.0,36.0,-100.00,ENE,61,12.0,12.0,36,-99.99,,,-99.99,,2013-07-27 12:02:00,
2013-07-27 06:22:00,64.0,36.0,-100.00,NE,51,11.0,13.0,34,-99.99,,,-99.99,,2013-07-27 12:22:00,
2013-07-27 06:33:00,64.0,35.0,-100.00,NE,52,14.0,14.0,33,-99.99,,,-99.99,,2013-07-27 12:33:00,
2013-07-27 06:43:00,64.0,35.0,-100.00,ENE,66,13.0,14.0,34,-99.99,,,-99.99,,2013-07-27 12:43:00,
2013-07-27 06:52:00,64.0,35.0,-100.00,NE,48,11.0,13.0,34,-99.99,,,-99.99,,2013-07-27 12:52:00,
2013-07-27 07:02:00,64.0,36.0,-100.00,NE,56,10.0,11.0,35,-99.99,,,-99.99,,2013-07-27 13:02:00,
2013-07-27 07:22:00,63.0,37.0,-100.00,SSW,198,7.0,8.0,38,-99.99,,,-99.99,,2013-07-27 13:22:00,
2013-07-27 07:44:00,63.0,37.0,-100.00,NW,324,7.0,9.0,38,-99.99,,,-99.99,,2013-07-27 13:44:00,
2013-07-27 07:53:00,63.0,37.0,-100.00,NW,324,7.0,9.0,38,-99.99,,,-99.99,,2013-07-27 13:53:00,
2013-07-27 08:02:00,63.0,39.0,-100.00,NNE,19,3.0,8.0,40,-99.99,,,-99.99,,2013-07-27 14:02:00,
2013-07-27 08:12:00,63.0,39.0,-100.00,NNE,19,3.0,8.0,40,-99.99,,,-99.99,,2013-07-27 14:12:00,
2013-07-27 08:22:00,64.0,40.0,-100.00,NE,46,3.0,5.0,41,-99.99,,,-99.99,,2013-07-27 14:22:00,
2013-07-27 08:32:00,64.0,40.0,-100.00,NE,46,3.0,5.0,41,-99.99,,,-99.99,,2013-07-27 14:32:00,
2013-07-27 08:43:00,67.0,42.0,-100.00,SE,144,3.0,8.0,40,-99.99,,,-99.99,,2013-07-27 14:43:00,
2013-07-27 08:54:00,67.0,42.0,-100.00,SE,144,3.0,8.0,40,-99.99,,,-99.99,,2013-07-27 14:54:00,
2013-07-27 09:02:00,67.0,42.0,-100.00,SE,130,3.0,5.0,41,-99.99,,,-99.99,,2013-07-27 15:02:00,
2013-07-27 09:12:00,66.0,45.0,-100.00,NNE,21,2.0,3.0,46,-99.99,,,-99.99,,2013-07-27 15:12:00,
2013-07-27 09:22:00,67.0,43.0,-100.00,South,189,4.0,7.0,42,-99.99,,,-99.99,,2013-07-27 15:22:00,
2013-07-27 09:33:00,67.0,44.0,-100.00,South,190,8.0,12.0,43,-99.99,,,-99.99,,2013-07-27 15:33:00,
2013-07-27 09:53:00,68.0,44.0,-100.00,SSW,202,4.0,11.0,42,-99.99,,,-99.99,,2013-07-27 15:53:00,
2013-07-27 10:02:00,68.0,44.0,-100.00,WSW,245,2.0,5.0,42,-99.99,,,-99.99,,2013-07-27 16:02:00,
2013-07-27 10:22:00,68.0,44.0,-100.00,WSW,250,3.0,5.0,42,-99.99,,,-99.99,,2013-07-27 16:22:00,
2013-07-27 10:33:00,68.0,45.0,-100.00,South,187,5.0,6.0,42,-99.99,,,-99.99,,2013-07-27 16:33:00,
2013-07-27 10:43:00,68.0,45.0,-100.00,SW,228,3.0,5.0,43,-99.99,,,-99.99,,2013-07-27 16:43:00,
2013-07-27 10:53:00,67.0,45.0,-100.00,West,280,3.0,4.0,44,-99.99,,,-99.99,,2013-07-27 16:53:00,
2013-07-27 11:02:00,67.0,45.0,-100.00,West,268,6.0,6.0,44,-99.99,,,-99.99,,2013-07-27 17:02:00,
2013-07-27 11:22:00,67.0,46.0,-100.00,NW,304,1.0,6.0,47,-99.99,,,-99.99,,2013-07-27 17:22:00,
2013-07-27 11:32:00,66.0,51.0,-100.00,NE,48,4.0,5.0,57,-99.99,,,-99.99,,2013-07-27 17:32:00,
2013-07-27 11:43:00,67.0,47.0,-100.00,NNE,30,5.0,7.0,48,-99.99,,,-99.99,,2013-07-27 17:43:00,
2013-07-27 12:02:00,69.0,47.0,-100.00,North,3,10.0,13.0,45,-99.99,,,-99.99,,2013-07-27 18:02:00,
2013-07-27 12:22:00,69.0,46.0,-100.00,NNE,26,8.0,16.0,44,-99.99,,,-99.99,,2013-07-27 18:22:00,
2013-07-27 12:42:00,69.0,45.0,-100.00,NNE,14,8.0,13.0,40,-99.99,,,-99.99,,2013-07-27 18:42:00,
2013-07-27 12:52:00,69.0,45.0,-100.00,NNE,14,8.0,13.0,40,-99.99,,,-99.99,,2013-07-27 18:52:00,
2013-07-27 13:02:00,70.0,45.0,-100.00,NE,49,5.0,15.0,40,-99.99,,,-99.99,,2013-07-27 19:02:00,
2013-07-27 13:22:00,70.0,46.0,-100.00,NNE,14,6.0,9.0,42,-99.99,,,-99.99,,2013-07-27 19:22:00,
2013-07-27 13:32:00,71.0,48.0,-100.00,NNE,25,6.0,9.0,44,-99.99,,,-99.99,,2013-07-27 19:32:00,
2013-07-27 13:43:00,71.0,47.0,-100.00,ENE,71,10.0,12.0,42,-99.99,,,-99.99,,2013-07-27 19:43:00,
2013-07-27 13:52:00,70.0,48.0,-100.00,NNE,19,6.0,12.0,45,-99.99,,,-99.99,,2013-07-27 19:52:00,
2013-07-27 14:02:00,70.0,48.0,-100.00,NNE,27,5.0,9.0,45,-99.99,,,-99.99,,2013-07-27 20:02:00,
2013-07-27 14:22:00,69.0,49.0,-100.00,North,356,14.0,19.0,49,-99.99,,,-99.99,,2013-07-27 20:22:00,
2013-07-27 14:32:00,68.0,50.0,-100.00,North,0,10.0,16.0,51,-99.99,,,-99.99,,2013-07-27 20:32:00,
2013-07-27 14:52:00,69.0,48.0,-100.00,NNW,344,5.0,11.0,46,-99.99,,,-99.99,,2013-07-27 20:52:00,
2013-07-27 15:02:00,70.0,49.0,-100.00,NNW,333,10.0,14.0,47,-99.99,,,-99.99,,2013-07-27 21:02:00,
2013-07-27 15:12:00,70.0,49.0,-100.00,NNW,330,10.0,15.0,46,-99.99,,,-99.99,,2013-07-27 21:12:00,
2013-07-27 15:22:00,71.0,47.0,-100.00,WNW,292,12.0,16.0,42,-99.99,,,-99.99,,2013-07-27 21:22:00,
2013-07-27 15:33:00,69.0,47.0,-100.00,West,274,13.0,18.0,45,-99.99,,,-99.99,,2013-07-27 21:33:00,
2013-07-27 15:42:00,69.0,47.0,-100.00,NW,312,9.0,12.0,45,-99.99,,,-99.99,,2013-07-27 21:42:00,
2013-07-27 16:02:00,68.0,48.0,-100.00,North,352,15.0,18.0,49,-99.99,,,-99.99,,2013-07-27 22:02:00,
2013-07-27 16:22:00,67.0,49.0,-100.00,North,350,18.0,22.0,53,-99.99,,,-99.99,,2013-07-27 22:22:00,
2013-07-27 16:32:00,66.0,49.0,-100.00,North,354,18.0,23.0,54,-99.99,,,-99.99,,2013-07-27 22:32:00,
2013-07-27 16:43:00,65.0,49.0,-100.00,North,353,16.0,21.0,56,-99.99,,,-99.99,,2013-07-27 22:43:00,
2013-07-27 16:53:00,64.0,51.0,-100.00,North,4,11.0,18.0,62,-99.99,,,-99.99,,2013-07-27 22:53:00,
2013-07-27 17:12:00,64.0,50.0,-100.00,North,0,13.0,19.0,61,-99.99,,,-99.99,,2013-07-27 23:12:00,
2013-07-27 17:22:00,64.0,51.0,-100.00,NW,326,11.0,16.0,61,-99.99,,,-99.99,,2013-07-27 23:22:00,
2013-07-27 17:32:00,64.0,51.0,-100.00,NNW,332,13.0,18.0,63,-99.99,,,-99.99,,2013-07-27 23:32:00,
2013-07-27 17:52:00,64.0,51.0,-100.00,NNW,345,10.0,16.0,61,-99.99,,,-99.99,,2013-07-27 23:52:00,
2013-07-27 18:02:00,64.0,50.0,-100.00,NW,319,9.0,18.0,61,-99.99,,,-99.99,,2013-07-28 00:02:00,
2013-07-27 18:12:00,64.0,50.0,-100.00,NNW,334,11.0,13.0,60,-99.99,,,-99.99,,2013-07-28 00:12:00,
2013-07-27 18:22:00,64.0,50.0,-100.00,NW,313,7.0,12.0,59,-99.99,,,-99.99,,2013-07-28 00:22:00,
2013-07-27 18:32:00,64.0,50.0,-100.00,NE,56,1.0,9.0,60,-99.99,,,-99.99,,2013-07-28 00:32:00,
2013-07-27 19:02:00,63.0,52.0,-100.00,NNW,341,8.0,12.0,65,-99.99,,,-99.99,,2013-07-28 01:02:00,
2013-07-27 19:12:00,64.0,50.0,-100.00,NNE,17,5.0,6.0,61,-99.99,,,-99.99,,2013-07-28 01:12:00,
2013-07-27 19:22:00,64.0,50.0,-100.00,NNE,17,5.0,6.0,61,-99.99,,,-99.99,,2013-07-28 01:22:00,
2013-07-27 19:32:00,64.0,51.0,-100.00,NNE,24,7.0,8.0,63,-99.99,,,-99.99,,2013-07-28 01:32:00,
2013-07-27 19:43:00,63.0,50.0,-100.00,North,3,9.0,13.0,63,-99.99,,,-99.99,,2013-07-28 01:43:00,
2013-07-27 19:53:00,63.0,50.0,-100.00,North,3,9.0,13.0,63,-99.99,,,-99.99,,2013-07-28 01:53:00,
2013-07-27 20:02:00,63.0,50.0,-100.00,NNW,346,5.0,9.0,61,-99.99,,,-99.99,,2013-07-28 02:02:00,
2013-07-27 20:22:00,64.0,50.0,-100.00,SSW,199,4.0,5.0,60,-99.99,,,-99.99,,2013-07-28 02:22:00,
2013-07-27 20:32:00,63.0,50.0,-100.00,WSW,244,2.0,5.0,63,-99.99,,,-99.99,,2013-07-28 02:32:00,
2013-07-27 20:42:00,63.0,50.0,-100.00,SSW,203,2.0,3.0,63,-99.99,,,-99.99,,2013-07-28 02:42:00,
2013-07-27 21:12:00,61.0,50.0,-100.00,ENE,69,5.0,5.0,67,-99.99,,,-99.99,,2013-07-28 03:12:00,
2013-07-27 21:22:00,61.0,50.0,-100.00,ENE,69,5.0,5.0,67,-99.99,,,-99.99,,2013-07-28 03:22:00,
2013-07-27 21:32:00,63.0,51.0,-100.00,ESE,111,4.0,5.0,65,-99.99,,,-99.99,,2013-07-28 03:32:00,
2013-07-27 21:42:00,61.0,51.0,-100.00,NE,54,5.0,5.0,69,-99.99,,,-99.99,,2013-07-28 03:42:00,
2013-07-27 21:52:00,61.0,51.0,-100.00,East,88,5.0,5.0,70,-99.99,,,-99.99,,2013-07-28 03:52:00,
2013-07-27 22:02:00,61.0,52.0,-100.00,ENE,73,7.0,7.0,72,-99.99,,,-99.99,,2013-07-28 04:02:00,
2013-07-27 22:12:00,61.0,52.0,-100.00,ENE,69,6.0,7.0,72,-99.99,,,-99.99,,2013-07-28 04:12:00,
2013-07-27 22:22:00,61.0,52.0,-100.00,ENE,69,6.0,7.0,72,-99.99,,,-99.99,,2013-07-28 04:22:00,
2013-07-27 22:43:00,57.0,49.0,-100.00,NNE,19,3.0,4.0,75,-99.99,,,-99.99,,2013-07-28 04:43:00,
2013-07-27 22:53:00,57.0,49.0,-100.00,NNE,19,3.0,4.0,75,-99.99,,,-99.99,,2013-07-28 04:53:00,
2013-07-27 23:12:00,56.0,49.0,-100.00,NNE,12,3.0,3.0,77,-99.99,,,-99.99,,2013-07-28 05:12:00,
2013-07-27 23:22:00,56.0,49.0,-100.00,NE,39,1.0,4.0,76,-99.99,,,-99.99,,2013-07-28 05:22:00,
2013-07-27 23:32:00,57.0,51.0,-100.00,East,93,4.0,4.0,79,-99.99,,,-99.99,,2013-07-28 05:32:00,
2013-07-27 23:43:00,59.0,51.0,-100.00,NE,46,6.0,6.0,76,-99.99,,,-99.99,,2013-07-28 05:43:00,
2013-07-27 23:52:00,59.0,51.0,-100.00,NE,46,6.0,6.0,76,-99.99,,,-99.99,,2013-07-28 05:52:00,